Terminal Aerodrome Forecast
Issued by NWS

Home | Current Version | Previous Version | Text Only | Print | Product List | Glossary On
Versions: 1 2 3 4 5 6 7 8 9 10 11 12 13
000
FTUS45 KFGZ 261727
TAFGCN
TAF
KGCN 261727Z 2618/2718 08013G23KT P6SM SCT130 BKN200
     FM270200 VRB04KT P6SM BKN130=

USA.gov is the U.S. government's official web portal to all federal, state and local government web resources and services.